createdAt,value
2018-12-26T00:00:45.499Z,0.00
2018-12-26T00:01:45.595Z,0.00
2018-12-26T00:02:46.891Z,0.00
2018-12-26T00:03:45.430Z,0.00
2018-12-26T00:04:45.403Z,0.00
2018-12-26T00:05:45.465Z,0.00
2018-12-26T00:06:45.412Z,0.00
2018-12-26T00:07:45.375Z,0.00
2018-12-26T00:08:45.367Z,0.00
2018-12-26T00:09:45.350Z,0.00
2018-12-26T00:10:45.342Z,0.00
2018-12-26T00:11:45.362Z,0.00
2018-12-26T00:12:45.324Z,0.00
2018-12-26T00:13:45.307Z,0.00
2018-12-26T00:14:45.291Z,0.00
2018-12-26T00:15:45.310Z,0.00
2018-12-26T00:16:45.291Z,0.00
2018-12-26T00:17:45.267Z,0.00
2018-12-26T00:18:45.283Z,0.00
2018-12-26T00:19:45.460Z,0.00
2018-12-26T00:20:45.227Z,0.00
2018-12-26T00:21:45.246Z,0.00
2018-12-26T00:22:45.207Z,0.00
2018-12-26T00:23:45.199Z,0.00
2018-12-26T00:24:45.188Z,0.00
2018-12-26T00:25:45.197Z,0.00
2018-12-26T00:26:45.186Z,0.00
2018-12-26T00:27:45.166Z,0.00
2018-12-26T00:28:45.142Z,0.00
2018-12-26T00:29:45.134Z,0.00
2018-12-26T00:30:45.119Z,0.00
2018-12-26T00:31:45.106Z,0.00
2018-12-26T00:32:45.138Z,0.00
2018-12-26T00:33:45.085Z,0.00
2018-12-26T00:34:45.072Z,0.00
2018-12-26T00:35:45.155Z,0.00
2018-12-26T00:36:45.056Z,0.00
2018-12-26T00:37:45.054Z,0.00
2018-12-26T00:38:45.050Z,0.00
2018-12-26T00:39:45.031Z,0.00
2018-12-26T00:40:45.003Z,0.00
2018-12-26T00:41:44.990Z,0.00
2018-12-26T00:42:45.005Z,0.00
2018-12-26T00:43:44.970Z,0.00
2018-12-26T00:44:44.976Z,0.00
2018-12-26T00:45:44.949Z,0.00
2018-12-26T00:46:44.941Z,0.00
2018-12-26T00:47:44.938Z,0.00
2018-12-26T00:48:44.918Z,0.00
2018-12-26T00:49:44.976Z,0.00
2018-12-26T00:50:44.890Z,0.00
2018-12-26T00:51:44.883Z,0.00
2018-12-26T00:52:44.876Z,0.00
2018-12-26T00:53:44.864Z,0.00
2018-12-26T00:54:44.863Z,0.00
2018-12-26T00:55:44.923Z,0.00
2018-12-26T00:56:44.826Z,0.00
2018-12-26T00:57:45.532Z,0.00
2018-12-26T00:58:44.806Z,0.00
2018-12-26T00:59:44.822Z,0.00
2018-12-26T01:00:44.782Z,0.00
2018-12-26T01:01:44.841Z,0.00
2018-12-26T01:02:44.766Z,0.00
2018-12-26T01:03:44.758Z,0.00
2018-12-26T01:04:44.796Z,0.00
2018-12-26T01:05:44.731Z,0.00
2018-12-26T01:06:44.730Z,0.00
2018-12-26T01:07:44.778Z,0.00
2018-12-26T01:08:44.694Z,0.00
2018-12-26T01:09:44.754Z,0.00
2018-12-26T01:10:44.711Z,0.00
2018-12-26T01:11:44.662Z,0.00
2018-12-26T01:12:44.658Z,0.00
2018-12-26T01:13:44.650Z,0.00
2018-12-26T01:14:44.638Z,0.00
2018-12-26T01:15:44.618Z,0.00
2018-12-26T01:16:44.606Z,0.00
2018-12-26T01:17:44.607Z,0.00
2018-12-26T01:18:44.606Z,0.00
2018-12-26T01:19:44.570Z,0.00
2018-12-26T01:20:44.562Z,0.00
2018-12-26T01:21:44.658Z,0.00
2018-12-26T01:22:44.546Z,0.00
2018-12-26T01:23:44.535Z,0.00
2018-12-26T01:24:44.546Z,0.00
2018-12-26T01:25:44.502Z,0.00
2018-12-26T01:26:44.490Z,0.00
2018-12-26T01:27:44.482Z,0.00
2018-12-26T01:28:44.470Z,0.00
2018-12-26T01:29:51.558Z,0.00
2018-12-26T01:30:44.447Z,0.00
2018-12-26T01:31:44.432Z,0.00
2018-12-26T01:32:44.422Z,0.00
2018-12-26T01:33:44.415Z,0.00
2018-12-26T01:34:44.398Z,0.00
2018-12-26T01:35:44.402Z,0.00
2018-12-26T01:36:44.389Z,0.00
2018-12-26T01:37:44.367Z,0.00
2018-12-26T01:38:44.354Z,0.00
2018-12-26T01:39:44.375Z,0.00
2018-12-26T01:40:44.331Z,0.00
2018-12-26T01:41:44.346Z,0.00
2018-12-26T01:42:44.310Z,0.00
2018-12-26T01:43:44.299Z,0.00
2018-12-26T01:44:44.307Z,0.00
2018-12-26T01:45:44.278Z,0.00
2018-12-26T01:46:44.266Z,0.00
2018-12-26T01:47:44.277Z,0.00
2018-12-26T01:48:44.243Z,0.00
2018-12-26T01:49:44.236Z,0.00
2018-12-26T01:50:44.234Z,0.00
2018-12-26T01:51:44.211Z,0.00
2018-12-26T01:52:44.198Z,0.00
2018-12-26T01:53:44.206Z,0.00
2018-12-26T01:54:44.179Z,0.00
2018-12-26T01:55:44.166Z,0.00
2018-12-26T01:56:44.170Z,0.00
2018-12-26T01:57:44.145Z,0.00
2018-12-26T01:58:44.150Z,0.00
2018-12-26T01:59:44.123Z,0.00
2018-12-26T02:00:44.110Z,0.00
2018-12-26T02:01:44.108Z,0.00
2018-12-26T02:02:44.109Z,0.00
2018-12-26T02:03:44.077Z,0.00
2018-12-26T02:04:44.078Z,0.00
2018-12-26T02:05:44.063Z,0.00
2018-12-26T02:06:44.047Z,0.00
2018-12-26T02:07:44.035Z,0.00
2018-12-26T02:08:44.050Z,0.00
2018-12-26T02:09:44.027Z,0.00
2018-12-26T02:10:44.003Z,0.00
2018-12-26T02:11:43.994Z,0.00
2018-12-26T02:12:43.980Z,0.00
2018-12-26T02:13:43.970Z,0.00
2018-12-26T02:14:43.967Z,0.00
2018-12-26T02:15:43.966Z,0.00
2018-12-26T02:16:43.943Z,0.00
2018-12-26T02:17:43.926Z,0.00
2018-12-26T02:18:43.918Z,0.00
2018-12-26T02:19:43.904Z,0.00
2018-12-26T02:20:43.936Z,0.00
2018-12-26T02:21:43.890Z,0.00
2018-12-26T02:22:43.875Z,0.00
2018-12-26T02:23:43.859Z,0.00
2018-12-26T02:24:43.851Z,0.00
2018-12-26T02:25:43.838Z,0.00
2018-12-26T02:26:43.854Z,0.00
2018-12-26T02:27:43.818Z,0.00
2018-12-26T02:28:43.806Z,0.00
2018-12-26T02:29:43.794Z,0.00
2018-12-26T02:30:43.788Z,0.00
2018-12-26T02:31:43.774Z,0.00
2018-12-26T02:32:43.787Z,0.00
2018-12-26T02:33:43.752Z,0.00
2018-12-26T02:34:43.740Z,0.00
2018-12-26T02:35:43.737Z,0.00
2018-12-26T02:36:43.722Z,0.00
2018-12-26T02:37:43.710Z,0.00
2018-12-26T02:38:43.800Z,0.00
2018-12-26T02:39:43.689Z,0.00
2018-12-26T02:40:43.706Z,0.00
2018-12-26T02:41:43.729Z,0.00
2018-12-26T02:42:43.654Z,0.00
2018-12-26T02:43:43.678Z,0.00
2018-12-26T02:44:43.639Z,0.00
2018-12-26T02:45:43.639Z,0.00
2018-12-26T02:46:43.610Z,0.00
2018-12-26T02:47:43.597Z,0.00
2018-12-26T02:48:43.587Z,0.00
2018-12-26T02:49:43.576Z,0.00
2018-12-26T02:50:43.575Z,0.00
2018-12-26T02:51:43.573Z,0.00
2018-12-26T02:52:43.539Z,0.00
2018-12-26T02:53:43.530Z,0.00
2018-12-26T02:54:43.518Z,0.00
2018-12-26T02:55:43.512Z,0.00
2018-12-26T02:56:47.825Z,0.00
2018-12-26T02:57:44.494Z,0.00
2018-12-26T02:58:43.478Z,0.00
2018-12-26T02:59:43.469Z,0.00
2018-12-26T03:00:43.461Z,0.00
2018-12-26T03:01:43.443Z,0.00
2018-12-26T03:02:43.442Z,0.00
2018-12-26T03:03:43.430Z,0.00
2018-12-26T03:04:43.411Z,0.00
2018-12-26T03:05:43.398Z,0.00
2018-12-26T03:06:43.395Z,0.00
2018-12-26T03:07:43.393Z,0.00
2018-12-26T03:08:43.382Z,0.00
2018-12-26T03:09:43.354Z,0.00
2018-12-26T03:10:43.342Z,0.00
2018-12-26T03:11:43.339Z,0.00
2018-12-26T03:12:43.323Z,0.00
2018-12-26T03:13:43.335Z,0.00
2018-12-26T03:14:43.313Z,0.00
2018-12-26T03:15:43.290Z,0.00
2018-12-26T03:16:43.279Z,0.00
2018-12-26T03:17:43.267Z,0.00
2018-12-26T03:18:43.270Z,0.00
2018-12-26T03:19:43.257Z,0.00
2018-12-26T03:20:43.266Z,0.00
2018-12-26T03:21:43.223Z,0.00
2018-12-26T03:22:43.227Z,0.00
2018-12-26T03:23:43.197Z,0.00
2018-12-26T03:24:43.191Z,0.00
2018-12-26T03:25:43.187Z,0.00
2018-12-26T03:26:43.178Z,0.00
2018-12-26T03:27:43.158Z,0.00
2018-12-26T03:28:43.153Z,0.00
2018-12-26T03:29:43.134Z,0.00
2018-12-26T03:30:43.123Z,0.00
2018-12-26T03:31:43.115Z,0.00
2018-12-26T03:32:43.129Z,0.00
2018-12-26T03:33:43.089Z,0.00
2018-12-26T03:34:43.078Z,0.00
2018-12-26T03:35:43.212Z,0.00
2018-12-26T03:36:43.054Z,0.00
2018-12-26T03:37:43.074Z,0.00
2018-12-26T03:38:43.059Z,0.00
2018-12-26T03:39:43.021Z,0.00
2018-12-26T03:40:43.009Z,0.00
2018-12-26T03:41:43.003Z,0.00
2018-12-26T03:42:42.990Z,0.00
2018-12-26T03:43:42.978Z,0.00
2018-12-26T03:44:42.992Z,0.00
2018-12-26T03:45:42.958Z,0.00
2018-12-26T03:46:42.946Z,0.00
2018-12-26T03:47:42.941Z,0.00
2018-12-26T03:48:42.920Z,0.00
2018-12-26T03:49:42.914Z,0.00
2018-12-26T03:50:42.935Z,0.00
2018-12-26T03:51:42.890Z,0.00
2018-12-26T03:52:42.882Z,0.00
2018-12-26T03:53:42.870Z,0.00
2018-12-26T03:54:42.859Z,0.00
2018-12-26T03:55:42.846Z,0.00
2018-12-26T03:56:42.858Z,0.00
2018-12-26T03:57:42.828Z,0.00
2018-12-26T03:58:42.813Z,0.00
2018-12-26T03:59:42.802Z,0.00
2018-12-26T04:00:42.790Z,0.00
2018-12-26T04:01:42.802Z,0.00
2018-12-26T04:02:42.790Z,0.00
2018-12-26T04:03:42.758Z,0.00
2018-12-26T04:04:42.746Z,0.00
2018-12-26T04:05:42.739Z,0.00
2018-12-26T04:06:42.727Z,0.00
2018-12-26T04:07:42.739Z,0.00
2018-12-26T04:08:42.710Z,0.00
2018-12-26T04:09:42.695Z,0.00
2018-12-26T04:10:42.682Z,0.00
2018-12-26T04:11:42.670Z,0.00
2018-12-26T04:12:42.662Z,0.00
2018-12-26T04:13:42.670Z,0.00
2018-12-26T04:14:42.642Z,0.00
2018-12-26T04:15:42.626Z,0.00
2018-12-26T04:16:42.614Z,0.00
2018-12-26T04:17:42.610Z,0.00
2018-12-26T04:18:42.591Z,0.00
2018-12-26T04:19:42.606Z,0.00
2018-12-26T04:20:42.582Z,0.00
2018-12-26T04:21:42.558Z,0.00
2018-12-26T04:22:42.580Z,0.00
2018-12-26T04:23:42.550Z,0.00
2018-12-26T04:24:42.526Z,0.00
2018-12-26T04:25:42.534Z,0.00
2018-12-26T04:26:42.514Z,0.00
2018-12-26T04:27:42.490Z,0.00
2018-12-26T04:28:42.481Z,0.00
2018-12-26T04:29:42.471Z,0.00
2018-12-26T04:30:42.461Z,0.00
2018-12-26T04:31:42.462Z,0.00
2018-12-26T04:32:42.446Z,0.00
2018-12-26T04:33:42.427Z,0.00
2018-12-26T04:34:42.416Z,0.00
2018-12-26T04:35:42.402Z,0.00
2018-12-26T04:36:42.418Z,0.00
2018-12-26T04:37:42.403Z,0.00
2018-12-26T04:38:42.371Z,0.00
2018-12-26T04:39:42.358Z,0.00
2018-12-26T04:40:42.346Z,0.00
2018-12-26T04:41:42.344Z,0.00
2018-12-26T04:42:42.354Z,0.00
2018-12-26T04:43:42.322Z,0.00
2018-12-26T04:44:42.306Z,0.00
2018-12-26T04:45:42.298Z,0.00
2018-12-26T04:46:42.283Z,0.00
2018-12-26T04:47:42.270Z,0.00
2018-12-26T04:48:42.282Z,0.00
2018-12-26T04:49:42.271Z,0.00
2018-12-26T04:50:42.233Z,0.00
2018-12-26T04:51:42.226Z,0.00
2018-12-26T04:52:42.214Z,0.00
2018-12-26T04:53:42.205Z,0.00
2018-12-26T04:54:42.211Z,0.00
2018-12-26T04:55:42.199Z,0.00
2018-12-26T04:56:42.169Z,0.00
2018-12-26T04:57:42.199Z,0.00
2018-12-26T04:58:42.146Z,0.00
2018-12-26T04:59:42.135Z,0.00
2018-12-26T05:00:42.135Z,0.00
2018-12-26T05:01:42.307Z,0.00
2018-12-26T05:02:42.103Z,0.00
2018-12-26T05:03:42.089Z,0.00
2018-12-26T05:04:42.079Z,0.00
2018-12-26T05:05:42.086Z,0.00
2018-12-26T05:06:42.062Z,0.00
2018-12-26T05:07:42.059Z,0.00
2018-12-26T05:08:42.046Z,0.00
2018-12-26T05:09:42.033Z,0.00
2018-12-26T05:10:42.015Z,0.00
2018-12-26T05:11:42.018Z,0.00
2018-12-26T05:12:41.990Z,0.00
2018-12-26T05:13:41.995Z,0.00
2018-12-26T05:14:41.973Z,0.00
2018-12-26T05:15:41.958Z,0.00
2018-12-26T05:16:41.947Z,0.00
2018-12-26T05:17:41.951Z,0.00
2018-12-26T05:18:41.928Z,0.00
2018-12-26T05:19:41.921Z,0.00
2018-12-26T05:20:41.902Z,0.00
2018-12-26T05:21:41.889Z,0.00
2018-12-26T05:22:41.882Z,0.00
2018-12-26T05:23:41.881Z,0.00
2018-12-26T05:24:41.858Z,0.00
2018-12-26T05:25:41.858Z,0.00
2018-12-26T05:26:41.834Z,0.00
2018-12-26T05:27:41.833Z,0.00
2018-12-26T05:28:41.834Z,0.00
2018-12-26T05:29:41.801Z,0.00
2018-12-26T05:30:41.789Z,0.00
2018-12-26T05:31:41.794Z,0.00
2018-12-26T05:32:41.770Z,0.00
2018-12-26T05:33:41.757Z,0.00
2018-12-26T05:34:41.757Z,0.00
2018-12-26T05:35:41.733Z,0.00
2018-12-26T05:36:41.722Z,0.00
2018-12-26T05:37:41.725Z,0.00
2018-12-26T05:38:41.701Z,0.00
2018-12-26T05:39:41.706Z,0.00
2018-12-26T05:40:41.677Z,0.00
2018-12-26T05:41:41.665Z,0.00
2018-12-26T05:42:41.662Z,0.00
2018-12-26T05:43:41.653Z,0.00
2018-12-26T05:44:41.633Z,0.00
2018-12-26T05:45:41.641Z,0.00
2018-12-26T05:46:41.617Z,0.00
2018-12-26T05:47:41.617Z,0.00
2018-12-26T05:48:41.589Z,0.00
2018-12-26T05:49:41.585Z,0.00
2018-12-26T05:50:41.589Z,0.00
2018-12-26T05:51:41.573Z,0.00
2018-12-26T05:52:41.550Z,0.00
2018-12-26T05:53:41.533Z,0.00
2018-12-26T05:54:41.522Z,0.00
2018-12-26T05:55:41.525Z,0.00
2018-12-26T05:56:41.505Z,0.00
2018-12-26T05:57:42.966Z,0.00
2018-12-26T05:58:41.477Z,0.00
2018-12-26T05:59:41.465Z,0.00
2018-12-26T06:00:41.457Z,0.00
2018-12-26T06:01:41.453Z,0.00
2018-12-26T06:02:41.474Z,0.00
2018-12-26T06:03:41.421Z,0.00
2018-12-26T06:04:41.409Z,0.00
2018-12-26T06:05:41.397Z,0.00
2018-12-26T06:06:41.390Z,0.00
2018-12-26T06:07:41.389Z,0.00
2018-12-26T06:08:41.385Z,0.00
2018-12-26T06:09:41.358Z,0.00
2018-12-26T06:10:41.345Z,0.00
2018-12-26T06:11:41.337Z,0.00
2018-12-26T06:12:41.321Z,0.00
2018-12-26T06:13:41.326Z,0.00
2018-12-26T06:14:41.322Z,0.00
2018-12-26T06:15:41.289Z,0.00
2018-12-26T06:16:41.281Z,0.00
2018-12-26T06:17:41.269Z,0.00
2018-12-26T06:18:41.257Z,0.00
2018-12-26T06:19:41.257Z,0.00
2018-12-26T06:20:41.244Z,0.00
2018-12-26T06:21:41.221Z,0.00
2018-12-26T06:22:41.209Z,0.00
2018-12-26T06:23:41.197Z,0.00
2018-12-26T06:24:41.193Z,0.00
2018-12-26T06:25:41.220Z,0.00
2018-12-26T06:26:41.165Z,0.00
2018-12-26T06:27:41.170Z,0.00
2018-12-26T06:28:41.145Z,0.00
2018-12-26T06:29:41.133Z,0.00
2018-12-26T06:30:41.121Z,0.00
2018-12-26T06:31:41.113Z,0.00
2018-12-26T06:32:41.105Z,0.00
2018-12-26T06:33:41.102Z,0.00
2018-12-26T06:34:41.077Z,0.00
2018-12-26T06:35:41.065Z,0.00
2018-12-26T06:36:41.053Z,0.00
2018-12-26T06:37:41.057Z,0.00
2018-12-26T06:38:41.057Z,0.00
2018-12-26T06:39:41.093Z,0.00
2018-12-26T06:40:41.041Z,0.00
2018-12-26T06:41:41.003Z,0.00
2018-12-26T06:42:40.989Z,0.00
2018-12-26T06:43:40.976Z,0.00
2018-12-26T06:44:40.985Z,0.00
2018-12-26T06:45:40.953Z,0.00
2018-12-26T06:46:40.945Z,0.00
2018-12-26T06:47:40.949Z,0.00
2018-12-26T06:48:40.921Z,0.00
2018-12-26T06:49:40.929Z,0.00
2018-12-26T06:50:40.896Z,0.00
2018-12-26T06:51:40.893Z,0.00
2018-12-26T06:52:40.889Z,0.00
2018-12-26T06:53:40.865Z,0.00
2018-12-26T06:54:40.857Z,0.00
2018-12-26T06:55:41.734Z,0.00
2018-12-26T06:56:40.837Z,0.00
2018-12-26T06:57:40.825Z,0.00
2018-12-26T06:58:40.828Z,0.00
2018-12-26T06:59:40.796Z,0.00
2018-12-26T07:00:40.788Z,0.00
2018-12-26T07:01:40.794Z,0.00
2018-12-26T07:02:40.766Z,0.00
2018-12-26T07:03:40.753Z,0.00
2018-12-26T07:04:40.752Z,0.00
2018-12-26T07:05:40.733Z,0.00
2018-12-26T07:06:40.721Z,0.00
2018-12-26T07:07:40.745Z,0.00
2018-12-26T07:08:40.696Z,4.00
2018-12-26T07:09:40.689Z,4.00
2018-12-26T07:10:40.689Z,0.00
2018-12-26T07:11:40.668Z,4.00
2018-12-26T07:12:40.652Z,4.00
2018-12-26T07:13:40.659Z,0.00
2018-12-26T07:14:40.633Z,4.00
2018-12-26T07:15:40.625Z,8.00
2018-12-26T07:16:40.725Z,8.00
2018-12-26T07:17:40.597Z,8.00
2018-12-26T07:18:40.585Z,8.00
2018-12-26T07:19:40.588Z,8.00
2018-12-26T07:20:40.566Z,8.00
2018-12-26T07:21:40.557Z,12.00
2018-12-26T07:22:40.557Z,12.00
2018-12-26T07:23:40.533Z,16.00
2018-12-26T07:24:40.537Z,16.00
2018-12-26T07:25:40.509Z,20.00
2018-12-26T07:26:40.497Z,20.00
2018-12-26T07:27:40.488Z,24.00
2018-12-26T07:28:40.577Z,24.00
2018-12-26T07:29:40.481Z,24.00
2018-12-26T07:30:40.477Z,28.00
2018-12-26T07:31:40.442Z,32.00
2018-12-26T07:32:40.433Z,32.00
2018-12-26T07:33:40.421Z,36.00
2018-12-26T07:34:42.281Z,36.00
2018-12-26T07:35:40.401Z,40.00
2018-12-26T07:36:40.401Z,40.00
2018-12-26T07:37:40.373Z,44.00
2018-12-26T07:38:40.365Z,48.00
2018-12-26T07:39:40.349Z,52.00
2018-12-26T07:40:40.349Z,56.00
2018-12-26T07:41:40.330Z,56.00
2018-12-26T07:42:40.336Z,60.00
2018-12-26T07:43:40.313Z,60.00
2018-12-26T07:44:40.296Z,60.00
2018-12-26T07:45:40.285Z,60.00
2018-12-26T07:46:40.285Z,64.00
2018-12-26T07:47:40.265Z,68.00
2018-12-26T07:48:40.265Z,68.00
2018-12-26T07:49:40.241Z,76.00
2018-12-26T07:50:40.231Z,84.00
2018-12-26T07:51:40.267Z,92.00
2018-12-26T07:52:40.209Z,96.00
2018-12-26T07:53:40.213Z,96.00
2018-12-26T07:54:40.205Z,100.00
2018-12-26T07:55:40.174Z,108.00
2018-12-26T07:56:40.172Z,112.00
2018-12-26T07:57:40.175Z,112.00
2018-12-26T07:58:40.186Z,108.00
2018-12-26T07:59:40.145Z,112.00
2018-12-26T08:00:40.117Z,112.00
2018-12-26T08:01:40.138Z,108.00
2018-12-26T08:02:40.094Z,108.00
2018-12-26T08:03:40.089Z,104.00
2018-12-26T08:04:40.076Z,100.00
2018-12-26T08:05:40.090Z,104.00
2018-12-26T08:06:40.053Z,104.00
2018-12-26T08:07:40.040Z,112.00
2018-12-26T08:08:40.041Z,120.00
2018-12-26T08:09:40.017Z,124.00
2018-12-26T08:10:40.011Z,132.00
2018-12-26T08:11:40.016Z,136.00
2018-12-26T08:12:39.986Z,148.00
2018-12-26T08:13:39.973Z,160.00
2018-12-26T08:14:39.964Z,172.00
2018-12-26T08:15:39.961Z,184.00
2018-12-26T08:16:39.960Z,192.00
2018-12-26T08:17:39.957Z,200.00
2018-12-26T08:18:39.916Z,204.00
2018-12-26T08:19:39.905Z,204.00
2018-12-26T08:20:39.897Z,204.00
2018-12-26T08:21:39.885Z,212.00
2018-12-26T08:22:39.890Z,220.00
2018-12-26T08:23:39.885Z,220.00
2018-12-26T08:24:39.856Z,220.00
2018-12-26T08:25:39.840Z,212.00
2018-12-26T08:26:39.830Z,208.00
2018-12-26T08:27:39.821Z,204.00
2018-12-26T08:28:39.823Z,204.00
2018-12-26T08:29:39.821Z,208.00
2018-12-26T08:30:39.793Z,220.00
2018-12-26T08:31:39.779Z,224.00
2018-12-26T08:32:39.764Z,220.00
2018-12-26T08:33:39.782Z,224.00
2018-12-26T08:34:39.744Z,220.00
2018-12-26T08:35:39.759Z,224.00
2018-12-26T08:36:39.722Z,224.00
2018-12-26T08:37:39.708Z,232.00
2018-12-26T08:38:39.699Z,236.00
2018-12-26T08:39:39.703Z,228.00
2018-12-26T08:40:39.674Z,232.00
2018-12-26T08:41:39.679Z,224.00
2018-12-26T08:42:39.654Z,228.00
2018-12-26T08:43:39.642Z,256.00
2018-12-26T08:44:39.630Z,296.00
2018-12-26T08:45:39.634Z,320.00
2018-12-26T08:46:39.623Z,328.00
2018-12-26T08:47:39.626Z,320.00
2018-12-26T08:48:39.587Z,292.00
2018-12-26T08:49:39.615Z,292.00
2018-12-26T08:50:39.566Z,292.00
2018-12-26T08:51:39.555Z,308.00
2018-12-26T08:52:39.558Z,324.00
2018-12-26T08:53:39.554Z,332.00
2018-12-26T08:54:39.539Z,340.00
2018-12-26T08:55:39.511Z,348.00
2018-12-26T08:56:39.502Z,360.00
2018-12-26T08:57:39.487Z,368.00
2018-12-26T08:58:39.474Z,364.00
2018-12-26T08:59:39.494Z,360.00
2018-12-26T09:00:39.474Z,368.00
2018-12-26T09:01:39.443Z,372.00
2018-12-26T09:02:39.433Z,376.00
2018-12-26T09:03:39.432Z,372.00
2018-12-26T09:04:39.410Z,372.00
2018-12-26T09:05:39.422Z,396.00
2018-12-26T09:06:39.399Z,388.00
2018-12-26T09:07:39.385Z,380.00
2018-12-26T09:08:39.377Z,376.00
2018-12-26T09:09:39.358Z,372.00
2018-12-26T09:10:39.378Z,384.00
2018-12-26T09:11:39.354Z,404.00
2018-12-26T09:12:39.325Z,424.00
2018-12-26T09:13:39.309Z,428.00
2018-12-26T09:14:39.298Z,436.00
2018-12-26T09:15:39.289Z,424.00
2018-12-26T09:16:39.299Z,416.00
2018-12-26T09:17:39.296Z,412.00
2018-12-26T09:18:39.254Z,400.00
2018-12-26T09:19:39.247Z,404.00
2018-12-26T09:20:39.237Z,400.00
2018-12-26T09:21:39.221Z,380.00
2018-12-26T09:22:39.229Z,360.00
2018-12-26T09:23:39.217Z,336.00
2018-12-26T09:24:39.191Z,328.00
2018-12-26T09:25:39.177Z,320.00
2018-12-26T09:26:39.169Z,324.00
2018-12-26T09:27:39.169Z,332.00
2018-12-26T09:28:43.823Z,352.00
2018-12-26T09:29:40.154Z,364.00
2018-12-26T09:30:39.121Z,384.00
2018-12-26T09:31:39.133Z,400.00
2018-12-26T09:32:39.105Z,396.00
2018-12-26T09:33:39.089Z,400.00
2018-12-26T09:34:39.094Z,408.00
2018-12-26T09:35:39.095Z,404.00
2018-12-26T09:36:39.061Z,392.00
2018-12-26T09:37:39.046Z,392.00
2018-12-26T09:38:39.034Z,408.00
2018-12-26T09:39:39.022Z,416.00
2018-12-26T09:40:39.023Z,408.00
2018-12-26T09:41:39.009Z,400.00
2018-12-26T09:42:38.989Z,400.00
2018-12-26T09:43:38.977Z,420.00
2018-12-26T09:44:38.970Z,420.00
2018-12-26T09:45:38.957Z,432.00
2018-12-26T09:46:38.981Z,432.00
2018-12-26T09:47:38.941Z,432.00
2018-12-26T09:48:38.930Z,428.00
2018-12-26T09:49:38.915Z,424.00
2018-12-26T09:50:38.907Z,420.00
2018-12-26T09:51:38.908Z,432.00
2018-12-26T09:52:38.899Z,424.00
2018-12-26T09:53:38.867Z,396.00
2018-12-26T09:54:38.859Z,380.00
2018-12-26T09:55:38.847Z,352.00
2018-12-26T09:56:38.835Z,360.00
2018-12-26T09:57:38.839Z,372.00
2018-12-26T09:58:38.836Z,384.00
2018-12-26T09:59:38.803Z,384.00
2018-12-26T10:00:38.797Z,384.00
2018-12-26T10:01:38.779Z,396.00
2018-12-26T10:02:38.771Z,384.00
2018-12-26T10:03:38.787Z,400.00
2018-12-26T10:04:38.767Z,392.00
2018-12-26T10:05:38.735Z,400.00
2018-12-26T10:06:38.727Z,368.00
2018-12-26T10:07:38.715Z,364.00
2018-12-26T10:08:38.702Z,364.00
2018-12-26T10:09:38.707Z,384.00
2018-12-26T10:10:38.723Z,364.00
2018-12-26T10:11:38.673Z,380.00
2018-12-26T10:12:38.659Z,396.00
2018-12-26T10:13:38.650Z,388.00
2018-12-26T10:14:38.640Z,380.00
2018-12-26T10:15:38.629Z,392.00
2018-12-26T10:16:38.667Z,380.00
2018-12-26T10:17:38.610Z,372.00
2018-12-26T10:18:38.594Z,376.00
2018-12-26T10:19:38.587Z,360.00
2018-12-26T10:20:38.571Z,364.00
2018-12-26T10:21:38.576Z,348.00
2018-12-26T10:22:38.583Z,368.00
2018-12-26T10:23:38.543Z,352.00
2018-12-26T10:24:38.527Z,364.00
2018-12-26T10:25:38.519Z,380.00
2018-12-26T10:26:38.511Z,384.00
2018-12-26T10:27:38.512Z,420.00
2018-12-26T10:28:38.523Z,412.00
2018-12-26T10:29:38.471Z,368.00
2018-12-26T10:30:38.463Z,400.00
2018-12-26T10:31:38.451Z,388.00
2018-12-26T10:32:38.438Z,396.00
2018-12-26T10:33:38.427Z,400.00
2018-12-26T10:34:38.455Z,380.00
2018-12-26T10:35:38.407Z,380.00
2018-12-26T10:36:38.395Z,408.00
2018-12-26T10:37:38.385Z,404.00
2018-12-26T10:38:38.371Z,420.00
2018-12-26T10:39:38.375Z,376.00
2018-12-26T10:40:38.379Z,368.00
2018-12-26T10:41:38.342Z,344.00
2018-12-26T10:42:38.326Z,368.00
2018-12-26T10:43:38.322Z,364.00
2018-12-26T10:44:38.306Z,388.00
2018-12-26T10:45:38.303Z,396.00
2018-12-26T10:46:38.294Z,404.00
2018-12-26T10:47:38.274Z,384.00
2018-12-26T10:48:38.262Z,380.00
2018-12-26T10:49:38.250Z,400.00
2018-12-26T10:50:38.238Z,376.00
2018-12-26T10:51:38.295Z,384.00
2018-12-26T10:52:38.219Z,392.00
2018-12-26T10:53:38.206Z,400.00
2018-12-26T10:54:38.195Z,408.00
2018-12-26T10:55:38.199Z,428.00
2018-12-26T10:56:38.175Z,432.00
2018-12-26T10:57:38.198Z,476.00
2018-12-26T10:58:38.150Z,488.00
2018-12-26T10:59:38.143Z,480.00
2018-12-26T11:00:38.137Z,488.00
2018-12-26T11:01:38.122Z,472.00
2018-12-26T11:02:38.106Z,500.00
2018-12-26T11:03:38.149Z,488.00
2018-12-26T11:04:38.085Z,512.00
2018-12-26T11:05:38.078Z,520.00
2018-12-26T11:06:38.067Z,476.00
2018-12-26T11:07:38.057Z,504.00
2018-12-26T11:08:38.057Z,500.00
2018-12-26T11:09:38.049Z,508.00
2018-12-26T11:10:38.018Z,540.00
2018-12-26T11:11:38.011Z,516.00
2018-12-26T11:12:38.001Z,532.00
2018-12-26T11:13:37.985Z,564.00
2018-12-26T11:14:38.005Z,596.00
2018-12-26T11:15:37.998Z,584.00
2018-12-26T11:16:37.957Z,576.00
2018-12-26T11:17:37.943Z,596.00
2018-12-26T11:18:37.929Z,612.00
2018-12-26T11:19:37.921Z,672.00
2018-12-26T11:20:37.909Z,620.00
2018-12-26T11:21:37.926Z,648.00
2018-12-26T11:22:37.885Z,628.00
2018-12-26T11:23:37.874Z,668.00
2018-12-26T11:24:37.866Z,648.00
2018-12-26T11:25:37.855Z,608.00
2018-12-26T11:26:37.845Z,548.00
2018-12-26T11:27:37.869Z,556.00
2018-12-26T11:28:37.834Z,552.00
2018-12-26T11:29:37.810Z,540.00
2018-12-26T11:30:37.801Z,532.00
2018-12-26T11:31:37.787Z,564.00
2018-12-26T11:32:37.779Z,516.00
2018-12-26T11:33:37.779Z,604.00
2018-12-26T11:34:37.767Z,604.00
2018-12-26T11:35:37.746Z,636.00
2018-12-26T11:36:37.735Z,680.00
2018-12-26T11:37:37.738Z,636.00
2018-12-26T11:38:37.710Z,632.00
2018-12-26T11:39:37.714Z,676.00
2018-12-26T11:40:37.690Z,692.00
2018-12-26T11:41:37.678Z,668.00
2018-12-26T11:42:37.665Z,752.00
2018-12-26T11:43:37.690Z,760.00
2018-12-26T11:44:37.646Z,836.00
2018-12-26T11:45:37.650Z,764.00
2018-12-26T11:46:37.622Z,748.00
2018-12-26T11:47:37.612Z,740.00
2018-12-26T11:48:37.622Z,696.00
2018-12-26T11:49:37.590Z,680.00
2018-12-26T11:50:37.578Z,628.00
2018-12-26T11:51:37.614Z,692.00
2018-12-26T11:52:37.562Z,676.00
2018-12-26T11:53:37.547Z,636.00
2018-12-26T11:54:37.554Z,672.00
2018-12-26T11:55:37.522Z,628.00
2018-12-26T11:56:37.521Z,664.00
2018-12-26T11:57:37.530Z,672.00
2018-12-26T11:58:37.490Z,652.00
2018-12-26T11:59:37.483Z,632.00
2018-12-26T12:00:37.486Z,616.00
2018-12-26T12:01:37.458Z,632.00
2018-12-26T12:02:37.446Z,600.00
2018-12-26T12:03:37.462Z,608.00
2018-12-26T12:04:37.430Z,592.00
2018-12-26T12:05:37.414Z,540.00
2018-12-26T12:06:37.417Z,492.00
2018-12-26T12:07:37.397Z,492.00
2018-12-26T12:08:37.381Z,452.00
2018-12-26T12:09:37.384Z,420.00
2018-12-26T12:10:37.357Z,400.00
2018-12-26T12:11:37.350Z,456.00
2018-12-26T12:12:37.349Z,420.00
2018-12-26T12:13:37.325Z,424.00
2018-12-26T12:14:37.313Z,408.00
2018-12-26T12:15:37.309Z,408.00
2018-12-26T12:16:37.296Z,384.00
2018-12-26T12:17:37.298Z,424.00
2018-12-26T12:18:37.277Z,440.00
2018-12-26T12:19:37.286Z,472.00
2018-12-26T12:20:37.249Z,468.00
2018-12-26T12:21:37.241Z,456.00
2018-12-26T12:22:37.226Z,484.00
2018-12-26T12:23:37.230Z,480.00
2018-12-26T12:24:37.206Z,508.00
2018-12-26T12:25:37.193Z,524.00
2018-12-26T12:26:37.181Z,528.00
2018-12-26T12:27:37.182Z,492.00
2018-12-26T12:28:37.169Z,492.00
2018-12-26T12:29:37.162Z,496.00
2018-12-26T12:30:37.141Z,516.00
2018-12-26T12:31:37.130Z,484.00
2018-12-26T12:32:37.117Z,476.00
2018-12-26T12:33:37.130Z,496.00
2018-12-26T12:34:37.093Z,512.00
2018-12-26T12:35:37.081Z,508.00
2018-12-26T12:36:37.073Z,480.00
2018-12-26T12:37:37.062Z,484.00
2018-12-26T12:38:37.050Z,528.00
2018-12-26T12:39:37.064Z,500.00
2018-12-26T12:40:37.041Z,476.00
2018-12-26T12:41:37.038Z,452.00
2018-12-26T12:42:37.005Z,472.00
2018-12-26T12:43:36.993Z,456.00
2018-12-26T12:44:36.987Z,444.00
2018-12-26T12:45:36.981Z,412.00
2018-12-26T12:46:36.979Z,424.00
2018-12-26T12:47:36.953Z,424.00
2018-12-26T12:48:36.941Z,420.00
2018-12-26T12:49:37.232Z,416.00
2018-12-26T12:50:36.920Z,416.00
2018-12-26T12:51:36.907Z,428.00
2018-12-26T12:52:36.926Z,416.00
2018-12-26T12:53:36.899Z,412.00
2018-12-26T12:54:36.874Z,420.00
2018-12-26T12:55:36.892Z,416.00
2018-12-26T12:56:36.853Z,408.00
2018-12-26T12:57:36.858Z,408.00